Weather at C 719 Heliport [CLOSED]

Public forecast

Using degrees Celsius for public forecast. Weather courtesy of forecast.io.

Closest aviation weather report (METAR) to C 719 Heliport

Closest report is Kunsan Air Base, 25.2 nm (46.6 km) W. Retrieved 2020/10/21 05:56 UTC (35 minutes ago):

RKJK 210556Z 09007KT 5SM HZ OVC150 18/11 A3002 RMK AO2A SLP170 T01760105 10178 20134 57028

Closest aviation forecast (TAF) to C 719 Heliport

Closest forecast is Kunsan Air Base, 25.2 nm (46.6 km) W. Retrieved 2020-10-21 23:00 UTC (0 seconds ago):

TAF RKJK 202300Z 2023/2205 12009KT 6000 HZ SCT180 QNH3010INS BECMG 2101/2102 13009KT 6000 HZ SCT040 BKN180 QNH3007INS BECMG 2107/2108 16009KT 6000 HZ OVC060 QNH3004INS BECMG 2201/2202 35012G20KT 9999 NSW BKN030 QNH2996INS TX19/2106Z TN11/2121Z